Airfield :
LOGIN :

Register | Disclaimer

   EN    FR    IT 

 










Legend :    VFR   Marginal VFR   IFR   Intensive IFR   Very Intensive IFR
Visi :
Ceiling :
>= 8 km
>= 3000ft
5 to 8 km
1000 to 3000 ft
1500m to 5 km
500 to 1000 ft
800 to 1500m
200 to 500 ft
< 800m
< 200 ft
Symbols :   Thunderstorms  Fog  Heavy snow  Heavy precipitations  Wind > 20 kt
SIGMETs :     Misc.  Thunderstorms  Icing  Turbulence  Mountain Waves  Volcanic Ashes






- Airport Elevation : 3 ft
- IATA code : DHR


EHKD - Den Helder De Kooy

CURRENT METAR :
  • 180925Z AUTO 28011KT 250V320 9999 NCD 07/02 Q1020 BLU 28012KT 9999 FEW015 SCT020

EXPIRED METARs :
  • 180855Z AUTO 28012KT 250V310 9999 FEW022 06/02 Q1020 BLU 25012KT 9999 FEW015 SCT020
  • 180848Z AUTO 29011KT 260V320 9999 FEW021 06/03 Q1020 BLU 25012KT 9999 FEW015 SCT020
  • 180831Z AUTO 26011KT 230V300 9999 SCT019 BKN023 BKN029 07/03 Q1020 WHT 25012KT 9999 FEW015 SCT020
  • 180814Z AUTO 26014KT 230V290 9999 FEW015CB SCT025 BKN031 06/03 Q1019 BLU 25012KT 9999 FEW015 SCT020
  • 180803Z AUTO 27012KT 9999 FEW015CB SCT023 06/03 Q1019 WHT 25012KT 9999 FEW015 SCT020
  • 180755Z AUTO 27014KT 240V300 9999 FEW042 06/02 Q1019 BLU 25012KT 9999 FEW015 SCT020
  • 180743Z AUTO 28013KT 250V310 9999 FEW020 SCT030 BKN044 06/03 Q1019 BLU 25012KT 9999 FEW015 SCT020
  • 180727Z AUTO 27011KT 250V310 9999 SCT021 SCT028 06/03 Q1019 WHT 25012KT 9999 FEW015 SCT020
  • 180715Z AUTO 27013KT 9999 FEW018 SCT140 06/03 Q1019 BLU 25012KT 9999 FEW015 SCT020
  • 180707Z AUTO 27013KT 230V290 9999 FEW018 SCT023 BKN027 06/03 Q1019 WHT 25012KT 9999 FEW015 SCT020
  • 180655Z AUTO 26014KT 230V290 9999 FEW019 06/03 Q1018 BLU 25012KT 9999 FEW015 SCT020

TAF TAF EHKD
Valid from the 18 at 06:00 until the 18 at 18:00 UTC


180522Z 1806/1818 25012KT 9999 FEW015 SCT020
TEMPO 1804/1818 27015G25KT 4500 SHRA SCT012 SCT017CB BKN020
BECMG 1811/1813 30012KT



MET'MAP, your aeronautical weather chart ! - Copyright ORBIFLY December 2007 - Disclaimer

ORBIFLY MET'MAP TEAM :

Programming & Development : Alexandra Zaïnal
Concept & original design : Baudouin d'Aumeries
Assistance for programming : Marc-Olivier Méhu
Technical & hardware support : Manuel Goepfert

Contact : metmap@orbifly.com




SOURCES & CREDITS :

   NOAA